Aérodrome :
LOGIN :

S'inscrire | Disclaimer

   EN    FR    IT 

 










Légende :    VFR   VFR Marginal   IFR   IFR Intensif   IFR Très Intensif
Visi : 
Plafond : 
>= 8 km
>= 3000ft
5 à 8 km
1000 à 3000 ft
1500m à 5 km
500 à 1000 ft
800 à 1500m
200 à 500 ft
< 800m
< 200 ft
Symboles :   Orages  Brouillard  Fortes neiges  Fortes précipitations  Vent > 20 kt
SIGMETs :   Divers  Orages  Givrage  Turbulence  Onde Orograph.  Cendres Volcan.







- Altitude de l'aérodrome : 935 ft


EBFS - Florennes

DERNIER METAR :
  • 170255Z AUTO 18010KT 9999 FEW004/// BKN006/// BKN017/// 05/04 Q1013 YLO

METARs EXPIRÉS :
  • 170238Z AUTO 19010KT 9999 SCT005/// BKN007/// BKN009/// 05/04 Q1013 YLO
  • 170155Z AUTO 18007KT 9000 -RA FEW006/// BKN008/// BKN010/// 04/04 Q1012 GRN
  • 170125Z AUTO 17009KT 9999 FEW007/// BKN009/// OVC011/// 04/04 Q1012 GRN
  • 170055Z AUTO 17008KT 9999 FEW010/// BKN013/// OVC016/// 04/04 Q1012 GRN
  • 170025Z AUTO 18008KT 9999 FEW004/// OVC013/// 04/04 Q1012 GRN

Prévision TAF périmée.
Pas de NOTAMs connus pour ce terrain.



MET'MAP, la Météo Aéronautique d'un coup d'oeil ! - Copyright ORBIFLY Décembre 2007 - Disclaimer

ORBIFLY MET'MAP TEAM :

Programmation & Développement : Alexandra Zaïnal
Conception & Développement : Baudouin d'Aumeries
Co-Programmation & Développement : Marc-Olivier Méhu
Soutien technique & logistique : Manuel Goepfert

Contact : metmap@orbifly.com




SOURCES & CREDITS :

   NOAA